Time;durP1;ratioP1;P1;durP2;ratioP2;P2;SDS_P1;SDS_P2;PMS_P1;PMS_P2;Temp;Humidity;BMP_temperature;BMP_pressure;BME280_temperature;BME280_humidity;BME280_pressure;Samples;Min_cycle;Max_cycle;Signal;HPM_P1;HPM_P2
2022/11/07 00:04:05;;;;;;;2.53;1.92;;;;;;;9.50;67.09;99695.19;10136572;29;19923;-77
2022/11/07 00:09:07;;;;;;;1.95;1.50;;;;;;;9.48;67.41;99689.13;10120362;29;20083;-77
2022/11/07 00:14:13;;;;;;;2.88;1.80;;;;;;;9.73;66.70;99706.56;10118620;29;20410;-78
2022/11/07 00:19:18;;;;;;;3.75;2.00;;;;;;;9.77;66.72;99699.13;10105026;29;20049;-78
2022/11/07 00:24:20;;;;;;;2.47;1.95;;;;;;;9.60;67.14;99715.84;10104474;29;20044;-76
2022/11/07 00:29:24;;;;;;;;;;;;;;;9.72;66.88;99717.47;10120689;29;20044;-78
2022/11/07 00:34:27;;;;;;;3.08;1.88;;;;;;;9.50;67.79;99727.38;10131735;29;19974;-77
2022/11/07 00:39:30;;;;;;;2.20;1.45;;;;;;;9.63;67.79;99729.00;10121338;29;20055;-77
2022/11/07 00:44:34;;;;;;;;;;;;;;;9.49;68.15;99735.56;10127278;29;20629;-75
2022/11/07 00:49:37;;;;;;;4.00;1.98;;;;;;;9.63;68.02;99737.88;10129060;29;19973;-75
2022/11/07 00:54:40;;;;;;;3.08;1.75;;;;;;;9.71;67.75;99746.13;10141896;29;20064;-76
2022/11/07 00:59:44;;;;;;;3.10;1.95;;;;;;;9.93;66.95;99734.38;10133874;29;20140;-77
2022/11/07 01:10:08;;;;;;;3.58;1.63;;;;;;;9.88;67.07;99747.34;10126200;29;20407;-76
2022/11/07 01:15:12;;;;;;;4.63;1.88;;;;;;;9.82;67.39;99739.81;10120130;29;20076;-77
2022/11/07 01:20:15;;;;;;;6.63;1.60;;;;;;;9.84;67.58;99750.38;10114472;29;20076;-77
2022/11/07 01:25:18;;;;;;;5.18;2.47;;;;;;;9.87;67.49;99760.88;10129000;29;20537;-76
2022/11/07 01:30:22;;;;;;;3.17;2.20;;;;;;;9.75;68.33;99759.25;10125473;29;20419;-77
2022/11/07 01:35:25;;;;;;;5.10;2.17;;;;;;;9.98;67.14;99754.56;10119091;29;20176;-77
2022/11/07 01:40:28;;;;;;;2.50;1.60;;;;;;;9.95;67.69;99774.47;10119518;29;20089;-77
2022/11/07 01:45:34;;;;;;;4.00;1.80;;;;;;;9.94;67.77;99757.53;10102508;29;20068;-78
2022/11/07 01:50:37;;;;;;;8.50;1.63;;;;;;;10.03;67.78;99761.22;10114790;29;20040;-76
2022/11/07 01:55:40;;;;;;;4.63;1.67;;;;;;;9.83;68.19;99756.75;10131047;29;20080;-77
2022/11/07 02:00:44;;;;;;;2.90;1.67;;;;;;;10.09;68.01;99752.66;10112873;29;20045;-78
2022/11/07 02:05:52;;;;;;;2.55;1.30;;;;;;;9.71;69.10;99764.03;10122214;29;20052;-78
2022/11/07 02:10:58;;;;;;;5.22;1.80;;;;;;;10.08;68.09;99782.28;10139734;29;20069;-76
2022/11/07 02:16:04;;;;;;;3.55;1.58;;;;;;;9.85;68.72;99761.00;10132099;29;20383;-76
2022/11/07 02:21:14;;;;;;;8.20;1.58;;;;;;;10.17;68.19;99762.69;10113157;29;20053;-78
2022/11/07 02:26:19;;;;;;;3.35;1.30;;;;;;;9.72;69.41;99779.13;10125246;29;20181;-77
2022/11/07 02:31:21;;;;;;;3.28;1.25;;;;;;;9.95;68.77;99766.41;10132204;29;20538;-76
2022/11/07 02:36:25;;;;;;;;;;;;;;;10.22;68.22;99757.75;10123810;29;20056;-75
2022/11/07 02:41:33;;;;;;;3.40;1.20;;;;;;;9.98;68.48;99751.88;10128849;29;19928;-78
2022/11/07 02:46:37;;;;;;;3.17;1.55;;;;;;;10.05;68.52;99751.19;10126277;29;20076;-77
2022/11/07 02:51:40;;;;;;;2.22;1.45;;;;;;;10.01;69.01;99749.78;10110269;29;20076;-77
2022/11/07 02:56:44;;;;;;;3.67;1.63;;;;;;;9.93;69.21;99758.50;10105204;29;20057;-76
2022/11/07 03:01:46;;;;;;;3.17;1.08;;;;;;;9.60;70.05;99766.78;10114508;29;20068;-75
2022/11/07 03:06:50;;;;;;;2.90;1.30;;;;;;;9.97;69.76;99759.09;10118573;29;20080;-77
2022/11/07 03:11:54;;;;;;;2.05;1.50;;;;;;;10.08;69.36;99760.81;10122092;29;20072;-76
2022/11/07 03:16:57;;;;;;;2.35;1.38;;;;;;;10.00;69.86;99769.53;10116082;29;20196;-76
2022/11/07 03:22:00;;;;;;;2.83;1.08;;;;;;;9.88;70.09;99765.28;10102035;29;20084;-76
2022/11/07 03:27:04;;;;;;;;;;;;;;;9.99;69.78;99785.78;10117457;29;20136;-77
2022/11/07 03:32:07;;;;;;;1.58;1.20;;;;;;;10.37;68.71;99768.97;10120650;29;20022;-77
2022/11/07 03:37:10;;;;;;;4.63;1.42;;;;;;;10.13;69.26;99778.22;10121143;29;20120;-77
2022/11/07 03:42:14;;;;;;;;;;;;;;;10.08;69.33;99772.41;10126869;29;20157;-76
2022/11/07 03:47:17;;;;;;;3.15;1.10;;;;;;;10.23;69.07;99778.25;10116742;29;20050;-78
2022/11/07 03:52:20;;;;;;;3.08;1.10;;;;;;;10.33;68.56;99781.78;10123808;29;20045;-77
2022/11/07 03:57:24;;;;;;;2.22;1.10;;;;;;;9.91;69.69;99773.91;10107602;29;20079;-76
2022/11/07 04:02:27;;;;;;;2.67;1.08;;;;;;;10.19;69.19;99792.91;10092300;29;20499;-77
2022/11/07 04:07:30;;;;;;;6.78;1.13;;;;;;;10.16;69.22;99793.19;10101502;29;20056;-76
2022/11/07 04:18:05;;;;;;;3.55;0.95;;;;;;;9.91;69.85;99807.91;10077551;29;20411;-76
2022/11/07 04:23:08;;;;;;;3.92;1.02;;;;;;;10.19;69.25;99798.28;10099710;29;20615;-76
2022/11/07 04:28:15;;;;;;;;;;;;;;;10.08;69.27;99814.50;10092637;29;20132;-76
2022/11/07 04:33:17;;;;;;;1.75;0.80;;;;;;;10.38;68.42;99809.06;10091694;29;20014;-76
2022/11/07 04:38:20;;;;;;;1.20;1.10;;;;;;;9.97;69.82;99810.06;10129798;29;20052;-76
2022/11/07 04:43:27;;;;;;;1.70;1.17;;;;;;;10.28;68.72;99807.34;10105222;29;20108;-76
2022/11/07 04:48:30;;;;;;;2.78;1.13;;;;;;;10.04;69.24;99805.88;10090642;29;20404;-76
2022/11/07 04:53:32;;;;;;;3.15;1.00;;;;;;;10.29;68.61;99806.38;10091300;29;20511;-76
2022/11/07 04:58:37;;;;;;;4.97;0.93;;;;;;;10.35;68.47;99804.00;10119757;29;20212;-75
2022/11/07 05:03:39;;;;;;;5.00;1.60;;;;;;;10.13;68.94;99798.84;10092748;29;20068;-76
2022/11/07 05:08:44;;;;;;;7.78;2.38;;;;;;;10.11;69.38;99816.91;10118019;29;20052;-77
2022/11/07 05:13:47;;;;;;;;;;;;;;;10.09;69.15;99822.41;10102871;29;20116;-77
2022/11/07 05:18:50;;;;;;;5.95;1.05;;;;;;;9.75;70.51;99810.22;10098364;29;19946;-77
2022/11/07 05:23:53;;;;;;;;;;;;;;;9.97;70.40;99798.47;10098113;29;20097;-77
2022/11/07 05:28:57;;;;;;;5.50;1.38;;;;;;;10.20;69.30;99804.50;10098153;29;19944;-77
2022/11/07 05:34:00;;;;;;;4.63;1.30;;;;;;;10.16;69.61;99791.34;10111026;29;20045;-77
2022/11/07 05:39:02;;;;;;;;;;;;;;;10.07;70.07;99805.59;10132277;29;20531;-77
2022/11/07 05:44:07;;;;;;;4.22;1.20;;;;;;;10.20;69.38;99794.59;10126293;29;19924;-77
2022/11/07 05:49:09;;;;;;;7.32;1.48;;;;;;;10.12;69.70;99806.03;10127175;29;20052;-77
2022/11/07 05:54:12;;;;;;;;;;;;;;;10.34;69.14;99804.13;10105875;29;20131;-77
2022/11/07 05:59:16;;;;;;;7.15;1.48;;;;;;;9.96;70.19;99815.59;10115913;29;19972;-77
2022/11/07 06:04:19;;;;;;;4.03;1.17;;;;;;;10.39;69.08;99820.66;10125729;29;20495;-77
2022/11/07 06:09:22;;;;;;;3.30;1.50;;;;;;;10.17;69.84;99824.41;10113585;29;20071;-77
2022/11/07 06:14:27;;;;;;;2.28;1.45;;;;;;;10.08;69.78;99822.53;10115024;29;20053;-77
2022/11/07 06:19:30;;;;;;;4.47;1.27;;;;;;;10.11;69.86;99824.94;10103299;29;20132;-77
2022/11/07 06:24:33;;;;;;;;;;;;;;;10.09;69.58;99833.16;10096238;29;20076;-76
2022/11/07 06:29:37;;;;;;;3.75;1.60;;;;;;;9.96;70.25;99837.88;10135803;29;19927;-76
2022/11/07 06:34:40;;;;;;;5.68;2.03;;;;;;;10.30;68.85;99837.59;10124273;29;20064;-77
2022/11/07 06:39:42;;;;;;;5.15;1.30;;;;;;;10.30;69.06;99846.50;10125170;29;20083;-77
2022/11/07 06:44:46;;;;;;;;;;;;;;;10.07;69.80;99847.69;10108027;29;20502;-77
2022/11/07 06:49:49;;;;;;;3.63;1.20;;;;;;;10.07;69.74;99843.16;10121302;29;20396;-77
2022/11/07 06:54:52;;;;;;;;;;;;;;;10.06;69.65;99848.66;10111492;29;20044;-77
2022/11/07 06:59:56;;;;;;;5.65;1.42;;;;;;;10.31;69.18;99866.13;10127885;29;19927;-77
2022/11/07 07:04:59;;;;;;;4.40;1.42;;;;;;;10.26;69.13;99865.72;10117727;29;20040;-77
2022/11/07 07:10:01;;;;;;;4.72;1.55;;;;;;;10.25;68.98;99880.94;10134895;29;20063;-77
2022/11/07 07:15:06;;;;;;;;;;;;;;;10.37;68.89;99873.66;10112929;29;20128;-77
2022/11/07 07:20:10;;;;;;;6.55;1.40;;;;;;;10.10;69.41;99882.31;10105755;29;19971;-77
2022/11/07 07:25:13;;;;;;;7.75;1.15;;;;;;;10.15;69.39;99874.69;10096483;29;20156;-77
2022/11/07 07:30:18;;;;;;;2.67;1.15;;;;;;;10.61;68.11;99868.81;10096106;29;20049;-76
2022/11/07 07:35:21;;;;;;;4.07;1.45;;;;;;;10.67;67.59;99880.84;10113379;29;20041;-77
2022/11/07 07:40:24;;;;;;;1.90;1.52;;;;;;;10.50;68.06;99876.09;10131586;29;20053;-77
2022/11/07 07:45:28;;;;;;;5.30;1.63;;;;;;;10.68;67.81;99876.31;10122355;29;20036;-77
2022/11/07 07:50:31;;;;;;;4.30;1.27;;;;;;;10.65;67.85;99895.38;10127250;29;20080;-76
2022/11/07 07:55:34;;;;;;;7.05;1.40;;;;;;;10.66;68.11;99895.22;10108600;29;20604;-77
2022/11/07 08:00:39;;;;;;;5.80;1.65;;;;;;;11.00;66.78;99878.78;10107557;29;20246;-77
2022/11/07 08:05:42;;;;;;;7.10;1.52;;;;;;;10.69;67.62;99886.88;10094090;29;20093;-77
2022/11/07 08:10:44;;;;;;;;;;;;;;;11.23;66.18;99900.88;10094818;29;20087;-77
2022/11/07 08:15:49;;;;;;;3.17;1.40;;;;;;;10.80;67.55;99897.53;10108884;29;20345;-77
2022/11/07 08:20:53;;;;;;;2.58;0.73;;;;;;;10.90;66.80;99894.03;10114678;29;20049;-77
2022/11/07 08:25:58;;;;;;;5.68;1.23;;;;;;;11.25;66.18;99897.06;10097539;29;20446;-77
2022/11/07 08:31:04;;;;;;;3.60;1.20;;;;;;;11.51;65.50;99891.13;10120698;29;20045;-77
2022/11/07 08:36:08;;;;;;;3.45;1.42;;;;;;;11.54;65.10;99890.00;10093934;29;20077;-77
2022/11/07 08:41:11;;;;;;;4.80;1.35;;;;;;;11.88;63.94;99885.00;10094308;29;20505;-77
2022/11/07 08:46:15;;;;;;;9.13;2.45;;;;;;;11.70;64.14;99896.47;10109189;29;20051;-77
2022/11/07 08:51:18;;;;;;;5.15;1.67;;;;;;;11.35;65.01;99872.88;10135459;29;20671;-77
2022/11/07 08:56:21;;;;;;;7.63;1.95;;;;;;;12.09;64.63;99877.56;10118456;29;20167;-77
2022/11/07 09:01:25;;;;;;;6.22;1.30;;;;;;;12.32;63.37;99878.09;10101301;29;20559;-77
2022/11/07 09:06:28;;;;;;;4.05;1.40;;;;;;;13.05;61.08;99878.13;10105236;29;20045;-77
2022/11/07 09:11:31;;;;;;;7.22;1.50;;;;;;;13.17;60.35;99891.38;10113963;29;20479;-77
2022/11/07 09:16:35;;;;;;;3.60;0.85;;;;;;;12.69;61.63;99887.13;10113646;29;20418;-77
2022/11/07 09:21:38;;;;;;;8.48;2.03;;;;;;;12.84;61.95;99882.94;10134608;29;20478;-78
2022/11/07 09:26:41;;;;;;;7.32;1.48;;;;;;;13.58;59.62;99892.63;10107648;29;20045;-77
2022/11/07 09:31:45;;;;;;;5.82;0.95;;;;;;;13.13;60.92;99890.81;10105723;29;20079;-77
2022/11/07 09:36:47;;;;;;;6.03;1.33;;;;;;;13.22;60.93;99897.16;10099589;29;20116;-77
2022/11/07 09:41:58;;;;;;;6.53;1.27;;;;;;;12.79;62.27;99898.72;10120921;29;20044;-77
2022/11/07 09:47:07;;;;;;;7.03;1.27;;;;;;;12.17;64.00;99915.38;10109611;29;20045;-77
2022/11/07 09:52:17;;;;;;;10.27;1.88;;;;;;;12.66;63.23;99920.59;10123823;29;20094;-77
2022/11/07 09:57:20;;;;;;;6.32;1.58;;;;;;;12.80;63.38;99919.25;10137866;29;20044;-77
2022/11/07 10:02:30;;;;;;;6.35;1.67;;;;;;;13.14;61.93;99932.13;10128813;29;20128;-77
2022/11/07 10:07:43;;;;;;;7.93;1.77;;;;;;;12.43;64.07;99922.84;10136061;29;20471;-77
2022/11/07 10:13:14;;;;;;;12.88;2.10;;;;;;;12.59;64.17;99949.16;10115683;29;20091;-77
2022/11/07 10:18:28;;;;;;;4.55;1.38;;;;;;;12.48;64.27;99943.94;10098355;29;20071;-77
2022/11/07 10:23:45;;;;;;;5.80;1.30;;;;;;;12.36;64.46;99949.50;10098376;29;20077;-77
2022/11/07 10:28:54;;;;;;;8.63;1.65;;;;;;;12.50;64.79;99956.25;10108308;29;20172;-77
2022/11/07 10:34:02;;;;;;;7.05;1.40;;;;;;;12.59;64.33;99949.16;10098426;29;20504;-77
2022/11/07 10:39:13;;;;;;;5.32;1.33;;;;;;;12.60;64.21;99935.53;10096719;29;20141;-77
2022/11/07 10:44:23;;;;;;;10.23;1.95;;;;;;;12.74;64.15;99947.66;10097510;29;20507;-78
2022/11/07 10:49:29;;;;;;;9.75;1.75;;;;;;;12.82;64.11;99933.44;10122530;29;20458;-77
2022/11/07 10:54:32;;;;;;;7.25;1.70;;;;;;;12.81;63.33;99937.16;10119810;29;20079;-76
2022/11/07 10:59:37;;;;;;;5.40;1.83;;;;;;;12.67;64.47;99943.00;10135889;29;20049;-78
2022/11/07 11:04:49;;;;;;;10.77;2.88;;;;;;;12.88;63.93;99942.78;10134665;29;20067;-77
2022/11/07 11:09:54;;;;;;;3.58;1.50;;;;;;;12.98;63.53;99955.19;10135276;29;20049;-77
2022/11/07 11:15:12;;;;;;;5.22;1.95;;;;;;;12.77;64.42;99947.34;10112243;29;20041;-77
2022/11/07 11:20:32;;;;;;;4.43;1.30;;;;;;;13.04;63.99;99942.97;10109218;29;20176;-77
2022/11/07 11:25:44;;;;;;;3.88;1.17;;;;;;;12.81;64.74;99927.22;10095835;29;20120;-78
2022/11/07 11:30:52;;;;;;;3.55;1.17;;;;;;;12.62;65.31;99938.09;10096100;29;20436;-77
2022/11/07 11:36:01;;;;;;;6.20;1.80;;;;;;;12.84;65.12;99926.06;10095376;29;20083;-77
2022/11/07 11:41:16;;;;;;;4.60;1.45;;;;;;;13.49;63.06;99932.19;10096155;29;20488;-77
2022/11/07 11:46:27;;;;;;;3.90;1.20;;;;;;;13.30;63.42;99953.00;10095134;29;20112;-77
2022/11/07 11:51:39;;;;;;;5.43;1.90;;;;;;;13.11;64.74;99922.50;10094024;29;20084;-77
2022/11/07 11:56:51;;;;;;;7.05;2.10;;;;;;;13.18;64.23;99928.13;10095117;29;20089;-77
2022/11/07 12:02:01;;;;;;;9.80;1.70;;;;;;;12.74;65.75;99950.34;10132916;29;20036;-76
2022/11/07 12:07:23;;;;;;;5.82;1.65;;;;;;;12.39;69.09;99953.75;10141591;29;20052;-77
2022/11/07 12:12:31;;;;;;;2.63;0.93;;;;;;;11.84;73.41;99950.84;10098214;29;20161;-77
2022/11/07 12:17:41;;;;;;;7.75;2.45;;;;;;;11.70;75.10;99962.91;10098114;29;20116;-77
2022/11/07 12:22:56;;;;;;;11.20;2.38;;;;;;;12.48;73.13;99954.72;10102546;29;20072;-77
2022/11/07 12:28:10;;;;;;;4.40;1.73;;;;;;;13.08;69.70;99949.75;10102733;29;20120;-77
2022/11/07 12:33:27;;;;;;;5.35;1.90;;;;;;;12.81;70.60;99969.50;10102434;29;20045;-77
2022/11/07 12:38:51;;;;;;;5.35;2.33;;;;;;;12.23;76.22;99970.50;10106537;29;20072;-78
2022/11/07 12:44:09;;;;;;;6.25;2.10;;;;;;;11.34;82.12;99980.56;10122107;29;20574;-77
2022/11/07 12:49:29;;;;;;;6.60;2.00;;;;;;;11.43;82.00;99985.97;10119706;29;20048;-77
2022/11/07 12:54:46;;;;;;;8.05;2.38;;;;;;;11.57;82.45;99983.84;10101909;29;20510;-78
2022/11/07 12:59:55;;;;;;;8.63;2.97;;;;;;;11.85;81.58;99980.31;10124218;29;20077;-78
2022/11/07 13:05:04;;;;;;;4.63;2.40;;;;;;;11.84;80.59;99985.84;10100282;29;20087;-78
2022/11/07 13:10:15;;;;;;;6.03;3.03;;;;;;;11.84;80.20;99983.16;10113002;29;20506;-78
2022/11/07 13:15:19;;;;;;;7.65;3.10;;;;;;;12.01;79.43;99963.56;10124352;29;20132;-77
2022/11/07 13:20:28;;;;;;;6.85;2.67;;;;;;;11.64;79.67;99976.94;10121089;29;20052;-77
2022/11/07 13:25:33;;;;;;;19.42;3.58;;;;;;;11.95;78.59;99983.00;10116338;29;20076;-78
2022/11/07 13:30:38;;;;;;;11.65;3.25;;;;;;;12.39;77.02;99976.13;10126034;29;20060;-77
2022/11/07 13:35:53;;;;;;;4.75;2.90;;;;;;;12.73;75.28;99972.06;10132568;29;20048;-78
2022/11/07 13:41:02;;;;;;;5.00;2.40;;;;;;;12.60;74.25;99975.09;10131644;29;20041;-78
2022/11/07 13:46:08;;;;;;;11.90;3.42;;;;;;;13.00;72.80;99965.81;10128936;29;20049;-77
2022/11/07 13:51:16;;;;;;;6.47;2.20;;;;;;;12.59;73.29;99970.72;10126301;29;20056;-77
2022/11/07 13:56:28;;;;;;;10.43;3.08;;;;;;;12.73;72.24;99977.47;10123776;29;20083;-78
2022/11/07 14:01:42;;;;;;;7.80;2.40;;;;;;;12.71;72.50;99961.44;10117845;29;20460;-77
2022/11/07 14:06:45;;;;;;;11.18;2.33;;;;;;;12.73;71.81;99966.69;10128995;29;20071;-78
2022/11/07 14:11:52;;;;;;;6.55;1.83;;;;;;;12.99;71.06;99959.59;10118550;29;20084;-77
2022/11/07 14:16:57;;;;;;;7.40;2.20;;;;;;;12.79;71.00;99963.38;10130877;29;20098;-77
2022/11/07 14:22:02;;;;;;;9.32;2.20;;;;;;;12.51;71.09;99978.69;10121407;29;20182;-78
2022/11/07 14:27:13;;;;;;;6.95;2.35;;;;;;;12.61;71.65;99984.88;10125524;29;20479;-78
2022/11/07 14:32:17;;;;;;;4.68;2.00;;;;;;;12.72;71.09;99987.38;10105891;29;20083;-77
2022/11/07 14:37:22;;;;;;;11.25;2.67;;;;;;;12.44;71.38;99991.03;10120912;29;20059;-78
2022/11/07 14:42:27;;;;;;;7.95;2.45;;;;;;;12.69;70.66;99990.38;10130806;29;20060;-78
2022/11/07 14:47:32;;;;;;;4.70;2.10;;;;;;;12.53;70.80;99979.38;10119051;29;20093;-77
2022/11/07 14:52:39;;;;;;;6.72;2.47;;;;;;;12.78;69.97;99985.94;10127102;29;20492;-78
2022/11/07 14:57:43;;;;;;;7.13;2.58;;;;;;;12.95;68.90;99977.06;10115933;29;20139;-78
2022/11/07 15:02:49;;;;;;;10.52;2.97;;;;;;;12.70;68.93;99981.31;10115581;29;20096;-77
2022/11/07 15:07:52;;;;;;;8.13;2.60;;;;;;;12.89;68.28;99988.47;10124358;29;20434;-77
2022/11/07 15:12:58;;;;;;;10.18;2.22;;;;;;;12.68;68.75;99982.44;10130495;29;20131;-77
2022/11/07 15:18:03;;;;;;;9.82;2.30;;;;;;;12.58;68.71;99986.00;10123631;29;20107;-77
2022/11/07 15:23:27;;;;;;;9.90;2.70;;;;;;;12.94;67.57;99988.84;10119721;29;20368;-77
2022/11/07 15:28:44;;;;;;;6.88;1.98;;;;;;;12.92;67.78;99993.56;10127455;29;20471;-78
2022/11/07 15:33:48;;;;;;;7.28;2.25;;;;;;;13.08;67.27;99994.75;10125934;29;20088;-78
2022/11/07 15:38:52;;;;;;;4.68;2.40;;;;;;;12.92;67.35;99982.78;10125476;29;20543;-79
2022/11/07 15:43:57;;;;;;;5.15;1.77;;;;;;;12.75;67.69;99997.88;10132754;29;20076;-78
2022/11/07 15:49:01;;;;;;;3.17;1.90;;;;;;;12.84;67.63;99988.06;10139025;29;20048;-78
2022/11/07 15:54:04;;;;;;;5.07;1.85;;;;;;;13.00;66.89;99987.38;10135814;29;20117;-80
2022/11/07 15:59:17;;;;;;;7.47;2.05;;;;;;;12.83;67.65;99991.72;10125626;29;20068;-76
2022/11/07 16:04:20;;;;;;;8.07;2.45;;;;;;;12.89;67.50;99991.16;10142133;29;20064;-81
2022/11/07 16:09:23;;;;;;;3.80;2.28;;;;;;;12.96;66.93;99988.69;10130954;29;20573;-79
2022/11/07 16:14:27;;;;;;;5.32;3.15;;;;;;;12.77;67.48;99998.56;10154241;29;20044;-77
2022/11/07 16:19:46;;;;;;;6.40;2.03;;;;;;;12.76;67.51;100004.13;10166846;29;20059;-77
2022/11/07 16:24:49;;;;;;;8.82;2.13;;;;;;;12.74;67.61;100000.72;10132756;29;20044;-77
2022/11/07 16:29:53;;;;;;;8.85;2.45;;;;;;;12.83;67.26;100011.47;10120056;29;20049;-76
2022/11/07 16:34:55;;;;;;;5.25;2.10;;;;;;;12.97;66.82;100007.44;10115906;29;20056;-76
2022/11/07 16:39:58;;;;;;;7.32;2.08;;;;;;;12.67;67.35;100016.63;10127899;29;20082;-78
2022/11/07 16:45:03;;;;;;;5.18;1.67;;;;;;;12.74;67.26;100006.94;10118100;29;20060;-77
2022/11/07 16:50:07;;;;;;;8.63;2.53;;;;;;;12.90;66.86;100016.25;10124286;29;20040;-78
2022/11/07 16:55:14;;;;;;;7.47;1.92;;;;;;;12.92;66.63;100015.13;10113410;29;20414;-77
2022/11/07 17:00:21;;;;;;;7.40;2.47;;;;;;;12.99;67.02;100015.38;10121082;29;20115;-79
2022/11/07 17:05:24;;;;;;;5.85;2.38;;;;;;;12.93;67.05;100013.25;10127392;29;20052;-80
2022/11/07 17:10:27;;;;;;;3.50;2.20;;;;;;;12.81;67.57;100015.31;10129629;29;20040;-78
2022/11/07 17:15:31;;;;;;;4.32;2.22;;;;;;;12.91;67.50;100015.25;10139600;29;20071;-79
2022/11/07 17:20:34;;;;;;;4.10;2.08;;;;;;;12.81;68.01;100023.41;10149303;29;20130;-79
2022/11/07 17:25:54;;;;;;;3.45;1.90;;;;;;;12.82;68.21;100019.69;10144749;29;20060;-79
2022/11/07 17:30:59;;;;;;;6.75;2.22;;;;;;;12.78;68.09;100026.34;10113069;29;20052;-78
2022/11/07 17:36:01;;;;;;;4.32;1.73;;;;;;;12.68;68.64;100022.88;10129296;29;20056;-76
2022/11/07 17:41:16;;;;;;;5.28;1.80;;;;;;;12.79;68.46;100015.44;10126512;29;20108;-77
2022/11/07 17:46:24;;;;;;;5.38;1.60;;;;;;;12.65;68.55;100020.47;10127287;29;20538;-78
2022/11/07 17:51:28;;;;;;;2.90;1.33;;;;;;;12.91;68.07;100029.56;10128568;29;20068;-78
2022/11/07 17:56:33;;;;;;;2.80;1.55;;;;;;;12.86;67.65;100031.03;10130962;29;20048;-77
2022/11/07 18:01:39;;;;;;;1.67;1.00;;;;;;;12.65;68.22;100029.41;10135967;29;20487;-77
2022/11/07 18:06:43;;;;;;;3.88;1.45;;;;;;;12.80;67.71;100033.31;10161515;29;20068;-77
2022/11/07 18:11:46;;;;;;;1.20;0.95;;;;;;;12.48;68.15;100046.28;10116968;29;20116;-79
2022/11/07 18:16:50;;;;;;;1.83;1.02;;;;;;;12.80;67.48;100032.47;10123677;29;20052;-77
2022/11/07 18:21:53;;;;;;;3.78;1.35;;;;;;;12.77;67.32;100036.28;10110545;29;20210;-79
2022/11/07 18:26:56;;;;;;;3.33;1.17;;;;;;;12.74;67.75;100036.59;10117423;29;20155;-80
2022/11/07 18:32:00;;;;;;;1.42;0.90;;;;;;;12.61;68.43;100033.38;10147173;29;20048;-78
2022/11/07 18:37:03;;;;;;;3.25;1.27;;;;;;;12.62;69.05;100037.78;10102054;29;20045;-77
2022/11/07 18:42:06;;;;;;;2.45;0.93;;;;;;;12.53;69.48;100044.03;10117984;29;20143;-78
2022/11/07 18:47:11;;;;;;;3.97;1.50;;;;;;;12.23;70.58;100054.00;10107641;29;20104;-77
2022/11/07 18:52:13;;;;;;;2.00;0.88;;;;;;;12.10;70.84;100035.41;10119081;29;20076;-77
2022/11/07 18:57:16;;;;;;;2.20;0.95;;;;;;;12.15;70.50;100041.22;10109987;29;20048;-78
2022/11/07 19:02:21;;;;;;;1.25;1.10;;;;;;;12.17;70.45;100035.69;10144426;29;20154;-79
2022/11/07 19:07:23;;;;;;;4.82;1.52;;;;;;;12.38;69.76;100038.25;10115143;29;20076;-79
2022/11/07 19:12:28;;;;;;;2.05;1.20;;;;;;;12.39;69.83;100040.78;10128168;29;21295;-79
2022/11/07 19:17:32;;;;;;;4.70;1.60;;;;;;;12.38;69.64;100033.72;10129472;29;20052;-79
2022/11/07 19:22:35;;;;;;;2.70;1.33;;;;;;;12.27;69.99;100043.75;10143791;29;20064;-79
2022/11/07 19:27:40;;;;;;;2.00;1.17;;;;;;;12.42;69.49;100049.56;10130486;29;20135;-78
2022/11/07 19:32:44;;;;;;;4.50;1.63;;;;;;;12.49;68.84;100040.78;10130228;29;20401;-77
2022/11/07 19:37:47;;;;;;;7.32;1.40;;;;;;;12.43;69.04;100049.44;10129748;29;20059;-76
2022/11/07 19:42:50;;;;;;;1.40;1.00;;;;;;;12.59;68.04;100049.69;10110356;29;20055;-76
2022/11/07 19:47:54;;;;;;;2.05;1.13;;;;;;;12.51;68.80;100046.88;10119709;29;20601;-75
2022/11/07 19:52:57;;;;;;;3.88;1.10;;;;;;;12.63;68.29;100036.78;10110500;29;20072;-77
2022/11/07 19:58:00;;;;;;;4.30;1.40;;;;;;;12.77;67.68;100038.16;10122947;29;20534;-77
2022/11/07 20:03:04;;;;;;;3.70;1.00;;;;;;;12.68;68.12;100039.03;10126636;29;20058;-78
2022/11/07 20:08:07;;;;;;;3.72;1.92;;;;;;;12.58;68.05;100039.91;10127602;29;20048;-78
2022/11/07 20:13:10;;;;;;;4.70;1.27;;;;;;;12.72;67.67;100043.13;10134314;29;20097;-78
2022/11/07 20:18:14;;;;;;;5.18;1.30;;;;;;;12.52;68.34;100045.03;10152316;29;20040;-78
2022/11/07 20:23:17;;;;;;;2.97;1.33;;;;;;;12.71;67.58;100044.13;10167047;29;20095;-78
2022/11/07 20:28:21;;;;;;;6.47;1.33;;;;;;;12.69;67.54;100049.66;10139888;29;20421;-77
2022/11/07 20:33:25;;;;;;;3.83;1.50;;;;;;;12.58;67.85;100047.97;10144354;29;20056;-79
2022/11/07 20:38:28;;;;;;;3.83;1.67;;;;;;;12.76;67.36;100049.94;10133871;29;21279;-79
2022/11/07 20:43:32;;;;;;;3.60;1.65;;;;;;;12.88;67.13;100048.75;10140365;29;20092;-77
2022/11/07 20:48:37;;;;;;;5.72;1.20;;;;;;;12.88;67.43;100045.22;10137669;29;20545;-78
2022/11/07 20:53:40;;;;;;;6.30;1.90;;;;;;;12.89;67.28;100054.97;10139506;29;20052;-77
2022/11/07 20:58:50;;;;;;;5.53;2.15;;;;;;;12.88;67.46;100053.28;10132046;29;20146;-78
2022/11/07 21:03:54;;;;;;;4.05;1.42;;;;;;;12.78;67.92;100050.63;10129575;29;20718;-78
2022/11/07 21:08:58;;;;;;;5.55;1.77;;;;;;;13.11;66.75;100065.41;10130513;29;20082;-77
2022/11/07 21:14:00;;;;;;;7.50;2.72;;;;;;;12.96;66.96;100072.28;10125348;29;20048;-77
2022/11/07 21:19:05;;;;;;;3.33;1.35;;;;;;;12.96;67.11;100062.34;10123462;29;20052;-78
2022/11/07 21:24:08;;;;;;;7.75;1.95;;;;;;;13.08;66.75;100079.16;10113165;29;20591;-78
2022/11/07 21:29:14;;;;;;;3.65;1.63;;;;;;;12.97;67.17;100079.34;10132878;29;20052;-77
2022/11/07 21:34:18;;;;;;;3.10;1.55;;;;;;;12.77;67.93;100074.03;10132993;29;21239;-77
2022/11/07 21:39:21;;;;;;;4.78;1.55;;;;;;;13.07;67.26;100073.94;10135357;29;21202;-78
2022/11/07 21:44:23;;;;;;;4.35;1.20;;;;;;;12.89;67.76;100063.94;10111379;29;20107;-78
2022/11/07 21:49:29;;;;;;;6.70;1.35;;;;;;;12.98;66.95;100075.69;10108134;29;20048;-79
2022/11/07 21:54:32;;;;;;;7.78;2.28;;;;;;;12.92;67.70;100065.50;10110416;29;21235;-77
2022/11/07 21:59:34;;;;;;;5.75;1.50;;;;;;;13.15;66.97;100066.81;10123469;29;20670;-79
2022/11/07 22:04:39;;;;;;;6.55;1.88;;;;;;;13.15;66.89;100065.97;10129412;29;20525;-78
2022/11/07 22:09:42;;;;;;;2.72;0.93;;;;;;;13.00;67.17;100070.97;10113628;29;20294;-76
2022/11/07 22:14:47;;;;;;;4.35;1.38;;;;;;;13.09;67.18;100062.00;10184551;29;20044;-78
2022/11/07 22:19:52;;;;;;;6.53;2.00;;;;;;;13.28;66.67;100061.91;10178207;29;20051;-79
2022/11/07 22:24:55;;;;;;;4.18;1.30;;;;;;;13.18;66.21;100063.81;10208012;23;20083;-80
2022/11/07 22:30:00;;;;;;;2.97;1.08;;;;;;;13.13;66.71;100058.00;10140038;29;20032;-81
2022/11/07 22:35:07;;;;;;;6.32;2.25;;;;;;;13.24;66.52;100059.66;10114207;29;20044;-81
2022/11/07 22:40:12;;;;;;;6.28;1.50;;;;;;;13.15;66.75;100052.47;10137162;29;20037;-80
2022/11/07 22:45:22;;;;;;;6.15;1.60;;;;;;;13.28;66.27;100051.13;10127477;29;20385;-79
2022/11/07 22:50:26;;;;;;;9.60;1.70;;;;;;;13.36;65.90;100047.69;10136020;29;20041;-80
2022/11/07 22:55:35;;;;;;;6.38;1.70;;;;;;;12.95;67.01;100055.25;10135623;29;20057;-78
2022/11/07 23:00:38;;;;;;;6.63;1.60;;;;;;;13.24;66.33;100038.94;10136166;29;20441;-79
2022/11/07 23:05:42;;;;;;;7.40;1.80;;;;;;;13.14;66.28;100042.69;10126069;29;20544;-79
2022/11/07 23:10:45;;;;;;;5.35;1.73;;;;;;;12.79;67.67;100052.34;10123251;29;20045;-79
2022/11/07 23:15:48;;;;;;;9.63;1.95;;;;;;;12.75;67.62;100051.78;10096138;29;20052;-79
2022/11/07 23:21:10;;;;;;;6.47;1.70;;;;;;;13.12;66.72;100042.84;10096832;29;20052;-80
2022/11/07 23:26:15;;;;;;;2.70;1.10;;;;;;;12.67;67.76;100040.00;10096349;29;20099;-79
2022/11/07 23:31:19;;;;;;;5.50;1.40;;;;;;;12.77;67.73;100046.22;10096133;29;20484;-79
2022/11/07 23:36:23;;;;;;;7.00;2.05;;;;;;;12.69;67.73;100043.41;10095125;29;20049;-79
2022/11/07 23:41:27;;;;;;;9.50;1.88;;;;;;;12.51;68.52;100043.34;10120679;29;20048;-80
2022/11/07 23:51:53;;;;;;;7.95;1.92;;;;;;;12.20;69.73;100045.31;10174329;29;20051;-80
2022/11/07 23:56:55;;;;;;;7.03;1.77;;;;;;;12.22;69.60;100048.72;10193413;23;20058;-81
